YLW weather

Kelowna International Airport
Kelowna, British Columbia, Canada

Public forecast

Using degrees Celsius for public forecast. Weather courtesy of forecast.io.

Current aviation weather report (METAR) for Kelowna International Airport

Retrieved 2019/11/17 08:00 UTC (48 minutes ago):

CYLW 170800Z AUTO 15005KT 9SM FEW060 OVC074 06/04 A3012 RMK PRESFR SLP212

Aviation forecast (TAF) for Kelowna International Airport

Retrieved 2019/11/17 07:39 UTC (1 hour ago):

TAF TAF CYLW 170638Z 1707/1719 VRB03KT P6SM SCT030 BKN060 TEMPO 1707/1717 P6SM -SHRA BKN020 OVC060 FM171700 18005KT P6SM BKN040 TEMPO 1717/1719 SCT040 RMK FCST BASED ON AUTO OBS NXT FCST BY 171300Z